Time;durP1;ratioP1;P1;durP2;ratioP2;P2;SDS_P1;SDS_P2;PMS_P1;PMS_P2;Temp;Humidity;BMP_temperature;BMP_pressure;BME280_temperature;BME280_humidity;BME280_pressure;Samples;Min_cycle;Max_cycle;Signal;HPM_P1;HPM_P2
2023/05/25 00:02:34;;;;;;;12.17;4.47;;;;;10.20;101967.00;;;;10165585;28;20221;-77
2023/05/25 00:07:36;;;;;;;11.37;4.43;;;;;10.10;101955.00;;;;10167021;28;20303;-76
2023/05/25 00:12:37;;;;;;;14.87;5.60;;;;;10.10;101957.00;;;;10162213;28;20304;-77
2023/05/25 00:17:39;;;;;;;11.50;4.83;;;;;10.10;101958.00;;;;10170538;28;20287;-77
2023/05/25 00:22:43;;;;;;;10.00;4.83;;;;;10.00;101967.00;;;;10134547;28;20209;-76
2023/05/25 00:27:45;;;;;;;11.30;4.67;;;;;9.90;101973.00;;;;10136086;28;20236;-77
2023/05/25 00:32:46;;;;;;;13.60;5.73;;;;;9.90;101968.00;;;;10148385;28;20216;-77
2023/05/25 00:37:49;;;;;;;10.87;4.63;;;;;9.90;101959.00;;;;10165457;28;20222;-77
2023/05/25 00:42:51;;;;;;;15.17;5.77;;;;;9.90;101974.00;;;;10163390;28;20252;-77
2023/05/25 00:47:53;;;;;;;11.27;5.00;;;;;9.80;101966.00;;;;10147896;28;20229;-76
2023/05/25 00:52:54;;;;;;;10.40;4.73;;;;;9.70;101975.00;;;;10167396;28;20364;-77
2023/05/25 00:57:59;;;;;;;16.77;5.67;;;;;9.60;101984.00;;;;10165132;28;20225;-77
2023/05/25 01:03:06;;;;;;;14.83;5.47;;;;;9.60;101983.00;;;;10144236;28;20225;-77
2023/05/25 01:08:13;;;;;;;14.33;5.10;;;;;9.50;101991.00;;;;10165513;28;20247;-76
2023/05/25 01:13:16;;;;;;;11.03;5.77;;;;;9.40;101992.00;;;;10127817;28;20232;-77
2023/05/25 01:18:18;;;;;;;14.80;6.40;;;;;9.40;101986.00;;;;10146119;28;20212;-76
2023/05/25 01:23:25;;;;;;;13.57;6.13;;;;;9.40;101991.00;;;;10167382;28;20349;-77
2023/05/25 01:28:39;;;;;;;13.20;5.87;;;;;9.30;101990.00;;;;10166882;28;20213;-76
2023/05/25 01:33:44;;;;;;;12.87;5.87;;;;;9.30;101994.00;;;;10144265;28;20806;-77
2023/05/25 01:38:45;;;;;;;15.10;6.30;;;;;9.20;101997.00;;;;10164943;28;20550;-76
2023/05/25 01:43:46;;;;;;;13.63;5.97;;;;;9.20;101999.00;;;;10163714;28;20220;-77
2023/05/25 01:49:18;;;;;;;15.03;6.10;;;;;9.10;101999.00;;;;10163075;28;20220;-77
2023/05/25 01:54:24;;;;;;;18.10;5.63;;;;;9.00;102003.00;;;;10165797;28;20251;-77
2023/05/25 01:59:28;;;;;;;13.07;6.60;;;;;9.00;102001.00;;;;10146307;28;20227;-76
2023/05/25 02:04:30;;;;;;;15.13;5.97;;;;;8.90;102002.00;;;;10123641;28;20245;-77
2023/05/25 02:09:31;;;;;;;15.83;6.20;;;;;8.90;102007.00;;;;10147339;28;21831;-77
2023/05/25 02:14:32;;;;;;;14.10;6.80;;;;;8.80;102012.00;;;;10147824;28;21182;-77
2023/05/25 02:19:34;;;;;;;17.97;6.30;;;;;8.80;101999.00;;;;10147462;28;20307;-75
2023/05/25 02:24:36;;;;;;;16.10;6.10;;;;;8.80;102007.00;;;;10146055;28;20251;-77
2023/05/25 02:29:38;;;;;;;17.27;6.63;;;;;8.70;102008.00;;;;10144933;28;20209;-77
2023/05/25 02:34:40;;;;;;;15.03;7.20;;;;;8.70;102004.00;;;;10129394;28;20237;-77
2023/05/25 02:39:41;;;;;;;18.10;7.73;;;;;8.70;102008.00;;;;10170458;28;20237;-77
2023/05/25 02:44:47;;;;;;;17.80;7.77;;;;;8.70;102002.00;;;;10155533;28;22434;-77
2023/05/25 02:49:49;;;;;;;19.80;7.67;;;;;8.70;101998.00;;;;10133458;28;20352;-77
2023/05/25 02:54:51;;;;;;;18.07;6.90;;;;;8.60;102001.00;;;;10169722;28;20224;-77
2023/05/25 02:59:59;;;;;;;14.43;6.60;;;;;8.60;102012.00;;;;10151475;28;20221;-77
2023/05/25 03:05:03;;;;;;;12.97;7.70;;;;;8.50;102011.00;;;;10147468;28;20370;-77
2023/05/25 03:10:07;;;;;;;15.87;7.23;;;;;8.50;102012.00;;;;10133108;28;20447;-77
2023/05/25 03:15:11;;;;;;;18.00;7.10;;;;;8.50;102033.00;;;;10172947;28;20297;-76
2023/05/25 03:20:14;;;;;;;15.63;6.43;;;;;8.40;102033.00;;;;10166764;28;20216;-77
2023/05/25 03:25:19;;;;;;;15.40;7.87;;;;;8.30;102034.00;;;;10148173;28;21162;-77
2023/05/25 03:30:23;;;;;;;17.97;7.80;;;;;8.30;102036.00;;;;10150797;28;20637;-76
2023/05/25 03:35:25;;;;;;;12.23;6.53;;;;;8.20;102037.00;;;;10174840;28;20221;-76
2023/05/25 03:40:37;;;;;;;15.63;7.43;;;;;8.10;102048.00;;;;10160141;28;20212;-77
2023/05/25 03:45:38;;;;;;;17.20;7.80;;;;;8.10;102049.00;;;;10117772;28;20236;-77
2023/05/25 03:50:39;;;;;;;16.13;7.43;;;;;8.10;102054.00;;;;10149485;28;20255;-76
2023/05/25 03:55:41;;;;;;;17.77;7.93;;;;;8.20;102053.00;;;;10145692;28;20713;-76
2023/05/25 04:00:43;;;;;;;12.00;7.17;;;;;8.20;102060.00;;;;10150056;28;20793;-76
2023/05/25 04:05:44;;;;;;;18.10;7.30;;;;;8.20;102069.00;;;;10170144;28;20696;-76
2023/05/25 04:10:46;;;;;;;15.40;7.50;;;;;8.30;102071.00;;;;10147970;28;20220;-77
2023/05/25 04:15:49;;;;;;;15.80;7.13;;;;;8.40;102071.00;;;;10167873;28;20723;-77
2023/05/25 04:20:56;;;;;;;15.33;8.17;;;;;8.50;102080.00;;;;10133079;28;20221;-76
2023/05/25 04:25:58;;;;;;;17.87;8.17;;;;;8.50;102078.00;;;;10139235;28;20237;-77
2023/05/25 04:31:00;;;;;;;20.43;7.73;;;;;8.60;102089.00;;;;10163835;28;20209;-76
2023/05/25 04:36:10;;;;;;;24.53;9.33;;;;;8.70;102089.00;;;;10143356;28;20220;-76
2023/05/25 04:41:12;;;;;;;16.97;7.60;;;;;8.90;102094.00;;;;10148146;28;20255;-76
2023/05/25 04:46:15;;;;;;;19.53;8.30;;;;;9.10;102097.00;;;;10145714;28;20268;-76
2023/05/25 04:51:18;;;;;;;14.43;7.50;;;;;9.30;102095.00;;;;10130671;28;20233;-77
2023/05/25 04:56:24;;;;;;;16.73;8.50;;;;;9.50;102098.00;;;;10120210;28;20247;-77
2023/05/25 05:01:25;;;;;;;13.33;7.83;;;;;9.90;102110.00;;;;10133451;28;20217;-77
2023/05/25 05:06:31;;;;;;;12.63;8.57;;;;;10.20;102108.00;;;;10137916;28;20271;-76
2023/05/25 05:11:32;;;;;;;17.70;9.07;;;;;10.50;102115.00;;;;10157914;28;20217;-78
2023/05/25 05:16:34;;;;;;;15.63;9.40;;;;;10.90;102126.00;;;;10141514;28;21387;-77
2023/05/25 05:21:35;;;;;;;16.47;8.13;;;;;11.30;102135.00;;;;10139180;28;20396;-77
2023/05/25 05:26:40;;;;;;;17.07;7.60;;;;;11.60;102125.00;;;;10142083;28;20810;-77
2023/05/25 05:32:09;;;;;;;16.77;8.67;;;;;11.90;102134.00;;;;10145119;28;20599;-77
2023/05/25 05:37:11;;;;;;;18.53;7.47;;;;;12.30;102141.00;;;;10154206;28;20222;-77
2023/05/25 05:42:12;;;;;;;13.93;7.83;;;;;12.90;102140.00;;;;10155549;28;20221;-77
2023/05/25 05:47:14;;;;;;;13.07;6.90;;;;;13.30;102145.00;;;;10135639;28;20929;-77
2023/05/25 05:52:15;;;;;;;13.60;6.90;;;;;13.70;102146.00;;;;10152225;28;20260;-78
2023/05/25 05:57:16;;;;;;;14.37;7.13;;;;;14.00;102148.00;;;;10155074;28;20371;-77
2023/05/25 06:02:18;;;;;;;12.30;5.97;;;;;14.40;102148.00;;;;10137149;28;20303;-77
2023/05/25 06:07:20;;;;;;;12.83;5.90;;;;;14.80;102160.00;;;;10154691;28;20408;-78
2023/05/25 06:12:21;;;;;;;11.50;5.90;;;;;15.10;102170.00;;;;10180771;28;20212;-77
2023/05/25 06:17:23;;;;;;;12.48;5.88;;;;;15.40;102172.00;;;;10164747;28;20224;-77
2023/05/25 06:22:27;;;;;;;11.65;6.18;;;;;15.60;102168.00;;;;10164499;28;20224;-77
2023/05/25 06:27:30;;;;;;;10.63;5.60;;;;;16.00;102166.00;;;;10165428;28;20268;-77
2023/05/25 06:32:31;;;;;;;11.95;6.07;;;;;16.40;102168.00;;;;10146908;28;21548;-77
2023/05/25 06:37:36;;;;;;;16.13;5.53;;;;;16.80;102182.00;;;;10162169;28;20221;-78
2023/05/25 06:42:39;;;;;;;10.73;5.32;;;;;17.20;102184.00;;;;10149013;28;20252;-77
2023/05/25 06:48:00;;;;;;;9.82;5.30;;;;;17.60;102180.00;;;;10161352;28;20236;-78
2023/05/25 06:53:03;;;;;;;9.38;4.90;;;;;17.90;102189.00;;;;10183432;28;20959;-78
2023/05/25 06:58:04;;;;;;;12.30;5.28;;;;;18.20;102189.00;;;;10198709;28;20359;-78
2023/05/25 07:03:05;;;;;;;11.73;5.65;;;;;18.50;102187.00;;;;10176988;28;20324;-78
2023/05/25 07:08:06;;;;;;;14.50;5.18;;;;;18.90;102183.00;;;;10192495;28;20863;-78
2023/05/25 07:13:09;;;;;;;9.73;4.63;;;;;19.30;102191.00;;;;10193036;28;21915;-78
2023/05/25 07:18:11;;;;;;;11.82;5.50;;;;;19.40;102189.00;;;;10193157;28;20876;-78
2023/05/25 07:23:12;;;;;;;9.43;4.95;;;;;19.60;102191.00;;;;10171927;28;20212;-78
2023/05/25 07:28:14;;;;;;;12.60;4.53;;;;;19.80;102181.00;;;;10179888;28;20324;-78
2023/05/25 07:33:15;;;;;;;13.50;4.70;;;;;20.20;102194.00;;;;10173523;28;20586;-78
2023/05/25 07:38:16;;;;;;;10.27;4.53;;;;;20.60;102192.00;;;;10174206;28;20216;-78
2023/05/25 07:43:18;;;;;;;13.38;4.65;;;;;21.00;102201.00;;;;10192041;28;22011;-78
2023/05/25 07:48:19;;;;;;;10.23;4.78;;;;;21.40;102198.00;;;;10187786;28;20229;-79
2023/05/25 07:53:20;;;;;;;8.07;4.38;;;;;21.60;102202.00;;;;10185217;28;20774;-78
2023/05/25 07:58:21;;;;;;;9.98;3.80;;;;;21.50;102221.00;;;;10181122;28;20367;-79
2023/05/25 08:03:23;;;;;;;11.50;4.25;;;;;20.80;102214.00;;;;10167194;28;20621;-79
2023/05/25 08:08:33;;;;;;;10.82;4.57;;;;;20.70;102215.00;;;;10131363;28;21587;-78
2023/05/25 08:13:34;;;;;;;11.50;3.67;;;;;20.90;102232.00;;;;10144359;28;21382;-79
2023/05/25 08:18:36;;;;;;;10.90;4.25;;;;;20.50;102229.00;;;;10148486;28;20365;-77
2023/05/25 08:23:41;;;;;;;11.73;5.22;;;;;21.30;102217.00;;;;10166158;28;20236;-78
2023/05/25 08:28:42;;;;;;;12.90;4.47;;;;;22.50;102216.00;;;;10148937;28;20256;-77
2023/05/25 08:33:43;;;;;;;11.98;4.75;;;;;22.70;102215.00;;;;10173639;28;20307;-78
2023/05/25 08:38:44;;;;;;;9.57;4.65;;;;;22.50;102231.00;;;;10171428;28;21494;-78
2023/05/25 08:43:46;;;;;;;11.30;4.57;;;;;20.70;102231.00;;;;10161235;28;20358;-78
2023/05/25 08:48:49;;;;;;;11.85;4.20;;;;;20.80;102205.00;;;;10136688;28;20324;-78
2023/05/25 08:53:53;;;;;;;12.93;4.55;;;;;22.10;102223.00;;;;10141715;28;20303;-78
2023/05/25 08:59:36;;;;;;;8.43;4.13;;;;;23.60;102213.00;;;;10139943;28;20876;-78
2023/05/25 09:04:38;;;;;;;8.32;4.15;;;;;23.10;102226.00;;;;10157612;28;20429;-78
2023/05/25 09:09:40;;;;;;;15.05;4.57;;;;;21.70;102230.00;;;;10158286;28;20292;-78
2023/05/25 09:14:44;;;;;;;9.23;4.53;;;;;22.60;102217.00;;;;10142531;28;20220;-78
2023/05/25 09:19:46;;;;;;;13.48;4.88;;;;;22.70;102213.00;;;;10114208;28;20221;-78
2023/05/25 09:24:47;;;;;;;9.63;4.10;;;;;22.60;102202.00;;;;10144946;28;20246;-77
2023/05/25 09:29:50;;;;;;;8.38;4.93;;;;;24.30;102213.00;;;;10159616;28;20259;-76
2023/05/25 09:34:52;;;;;;;8.30;4.10;;;;;25.40;102208.00;;;;10173131;28;20454;-76
2023/05/25 09:39:53;;;;;;;5.88;3.85;;;;;26.60;102207.00;;;;10172160;28;20903;-76
2023/05/25 09:44:56;;;;;;;9.13;4.03;;;;;26.40;102223.00;;;;10171641;28;20324;-76
2023/05/25 09:49:58;;;;;;;7.63;3.72;;;;;24.20;102225.00;;;;10155360;28;20221;-76
2023/05/25 09:55:01;;;;;;;8.40;4.20;;;;;22.40;102216.00;;;;10172726;28;20426;-75
2023/05/25 10:00:04;;;;;;;8.15;3.70;;;;;22.50;102217.00;;;;10174573;28;20213;-77
2023/05/25 10:05:12;;;;;;;6.72;3.42;;;;;23.50;102208.00;;;;10182395;28;20543;-75
2023/05/25 10:10:14;;;;;;;5.75;3.10;;;;;25.70;102199.00;;;;10183538;28;21019;-75
2023/05/25 10:15:16;;;;;;;6.72;3.38;;;;;24.90;102211.00;;;;10167257;28;20220;-76
2023/05/25 10:20:18;;;;;;;8.25;3.55;;;;;24.10;102206.00;;;;10163662;28;20315;-76
2023/05/25 10:25:36;;;;;;;4.32;2.83;;;;;26.10;102201.00;;;;10177399;28;20312;-75
2023/05/25 10:30:38;;;;;;;5.70;3.28;;;;;24.70;102196.00;;;;10151483;28;21890;-76
2023/05/25 10:35:41;;;;;;;6.47;3.30;;;;;24.50;102198.00;;;;10135071;28;20224;-77
2023/05/25 10:41:04;;;;;;;6.78;3.58;;;;;25.50;102217.00;;;;10157395;28;20850;-76
2023/05/25 10:46:06;;;;;;;5.30;2.92;;;;;24.90;102215.00;;;;10158086;28;20237;-77
2023/05/25 10:51:08;;;;;;;7.20;3.20;;;;;24.40;102214.00;;;;10162011;28;20233;-77
2023/05/25 10:56:13;;;;;;;3.47;2.75;;;;;26.50;102198.00;;;;10159153;28;20324;-75
2023/05/25 12:28:15;;;;;;;6.05;3.85;;;;;28.90;102188.00;;;;10645392;22;20382;-78
2023/05/25 12:33:16;;;;;;;8.15;3.80;;;;;29.50;102176.00;;;;10648233;27;20195;-76
2023/05/25 12:38:20;;;;;;;9.15;3.85;;;;;28.80;102183.00;;;;10621086;27;20564;-76
2023/05/25 12:43:21;;;;;;;4.95;3.25;;;;;27.10;102158.00;;;;10625552;27;20286;-76
2023/05/25 12:48:26;;;;;;;6.90;4.13;;;;;28.00;102168.00;;;;10626658;27;20196;-75
2023/05/25 12:53:29;;;;;;;8.73;3.63;;;;;26.30;102186.00;;;;10636936;27;20619;-75
2023/05/25 12:58:31;;;;;;;9.95;3.78;;;;;25.90;102177.00;;;;10603176;27;20275;-74
2023/05/25 13:03:33;;;;;;;9.70;3.65;;;;;26.10;102174.00;;;;10665456;27;20242;-72
2023/05/25 13:08:34;;;;;;;8.63;3.95;;;;;25.00;102169.00;;;;10683305;27;20225;-75
2023/05/25 13:13:36;;;;;;;6.60;4.05;;;;;26.20;102173.00;;;;10585826;27;20199;-77
2023/05/25 13:18:37;;;;;;;8.25;4.60;;;;;26.00;102171.00;;;;10605264;27;20257;-73
2023/05/25 13:23:38;;;;;;;8.85;4.22;;;;;26.50;102165.00;;;;10638706;27;20207;-73
2023/05/25 13:28:39;;;;;;;10.57;4.43;;;;;25.10;102170.00;;;;10608595;27;20199;-73
2023/05/25 13:33:41;;;;;;;7.70;4.60;;;;;25.80;102154.00;;;;10590734;27;20241;-73
2023/05/25 13:38:42;;;;;;;9.98;4.40;;;;;26.50;102153.00;;;;10570148;28;20301;-74
2023/05/25 13:43:44;;;;;;;10.93;4.38;;;;;25.20;102173.00;;;;10582695;27;20279;-76
2023/05/25 13:48:46;;;;;;;8.63;4.07;;;;;26.50;102153.00;;;;10522819;27;20208;-75
2023/05/25 13:53:48;;;;;;;7.95;3.97;;;;;26.20;102163.00;;;;10480022;27;20204;-75
2023/05/25 13:58:49;;;;;;;8.27;3.92;;;;;24.80;102179.00;;;;10496882;27;21234;-77
2023/05/25 14:03:50;;;;;;;8.70;4.13;;;;;24.60;102156.00;;;;10497797;27;20250;-77
2023/05/25 14:08:52;;;;;;;6.32;3.25;;;;;25.00;102169.00;;;;10508100;27;21720;-76
2023/05/25 14:13:53;;;;;;;7.75;4.00;;;;;25.70;102153.00;;;;10519055;27;21569;-75
2023/05/25 14:18:55;;;;;;;8.18;4.20;;;;;24.90;102156.00;;;;10497345;27;20246;-75
2023/05/25 14:23:56;;;;;;;8.40;3.65;;;;;23.80;102155.00;;;;10492996;27;20234;-75
2023/05/25 14:28:58;;;;;;;8.25;3.75;;;;;26.20;102146.00;;;;10511692;27;20864;-77
2023/05/25 14:33:59;;;;;;;15.73;4.40;;;;;26.00;102144.00;;;;10494902;27;20219;-74
2023/05/25 14:39:00;;;;;;;9.75;4.35;;;;;26.40;102146.00;;;;10492072;27;20775;-74
2023/05/25 14:44:01;;;;;;;7.85;3.90;;;;;24.30;102144.00;;;;10489527;28;20214;-77
2023/05/25 14:49:03;;;;;;;8.68;4.07;;;;;25.40;102129.00;;;;10503408;27;21077;-77
2023/05/25 14:54:06;;;;;;;10.68;4.32;;;;;27.90;102127.00;;;;10502901;27;20321;-76
2023/05/25 14:59:07;;;;;;;6.85;3.65;;;;;30.40;102125.00;;;;10484646;27;20263;-76
2023/05/25 15:04:08;;;;;;;10.68;4.22;;;;;27.80;102139.00;;;;10505757;27;20232;-76
2023/05/25 15:09:12;;;;;;;9.70;4.03;;;;;25.30;102131.00;;;;10472420;27;20210;-74
2023/05/25 15:14:13;;;;;;;8.23;3.22;;;;;28.90;102121.00;;;;10512330;27;20219;-74
2023/05/25 15:19:15;;;;;;;9.82;3.92;;;;;31.30;102127.00;;;;10495249;27;21877;-75
2023/05/25 15:24:18;;;;;;;5.65;3.42;;;;;32.10;102115.00;;;;10492334;27;20228;-76
2023/05/25 15:29:19;;;;;;;5.25;3.80;;;;;32.10;102122.00;;;;10491484;27;20342;-76
2023/05/25 15:34:21;;;;;;;7.53;3.88;;;;;30.70;102113.00;;;;10508718;27;20205;-75
2023/05/25 15:39:22;;;;;;;5.93;3.35;;;;;29.90;102117.00;;;;10480877;27;20208;-76
2023/05/25 15:44:24;;;;;;;8.93;4.00;;;;;25.70;102128.00;;;;10500619;27;20222;-76
2023/05/25 15:49:25;;;;;;;8.77;4.22;;;;;24.00;102116.00;;;;10505949;27;20204;-74
2023/05/25 15:54:26;;;;;;;13.95;4.10;;;;;23.40;102110.00;;;;10476368;27;21814;-75
2023/05/25 15:59:27;;;;;;;9.27;4.47;;;;;22.60;102106.00;;;;10474788;28;20207;-76
2023/05/25 16:04:29;;;;;;;11.13;4.32;;;;;22.40;102107.00;;;;10510006;28;20228;-75
2023/05/25 16:09:30;;;;;;;10.07;4.57;;;;;22.30;102110.00;;;;10491698;27;20210;-74
2023/05/25 16:14:31;;;;;;;9.48;4.50;;;;;21.60;102108.00;;;;10508595;27;20215;-75
2023/05/25 16:19:32;;;;;;;8.80;4.15;;;;;21.10;102110.00;;;;10504748;27;20271;-75
2023/05/25 16:24:34;;;;;;;9.52;4.18;;;;;20.70;102112.00;;;;10490408;27;20275;-75
2023/05/25 16:29:35;;;;;;;11.55;4.57;;;;;20.80;102098.00;;;;10506640;27;20206;-76
2023/05/25 16:34:36;;;;;;;8.85;4.75;;;;;20.70;102105.00;;;;10507790;27;20238;-76
2023/05/25 16:39:38;;;;;;;9.40;4.18;;;;;20.70;102098.00;;;;10473187;28;20203;-74
2023/05/25 16:44:39;;;;;;;9.15;4.57;;;;;21.20;102097.00;;;;10486952;28;20231;-75
2023/05/25 16:49:43;;;;;;;11.55;4.82;;;;;21.50;102105.00;;;;10470290;27;20950;-76
2023/05/25 16:54:47;;;;;;;9.68;4.40;;;;;21.40;102105.00;;;;10432925;27;20231;-76
2023/05/25 16:59:54;;;;;;;9.00;4.22;;;;;20.70;102106.00;;;;10477019;27;20330;-76
2023/05/25 17:04:56;;;;;;;8.77;4.53;;;;;20.00;102095.00;;;;10482675;27;21522;-76
2023/05/25 17:10:01;;;;;;;13.05;4.85;;;;;19.90;102103.00;;;;10486453;27;20250;-78
2023/05/25 17:15:04;;;;;;;8.27;4.25;;;;;19.90;102092.00;;;;10462747;27;20227;-76
2023/05/25 17:20:06;;;;;;;9.13;4.40;;;;;19.80;102089.00;;;;10491929;27;20236;-75
2023/05/25 17:25:08;;;;;;;8.50;4.30;;;;;19.80;102089.00;;;;10477638;28;20449;-76
2023/05/25 17:30:09;;;;;;;7.22;4.45;;;;;19.60;102091.00;;;;10465289;27;20471;-77
2023/05/25 17:35:11;;;;;;;6.75;4.35;;;;;19.50;102097.00;;;;10492283;28;20216;-76
2023/05/25 17:40:13;;;;;;;10.88;4.45;;;;;19.20;102104.00;;;;10468917;28;20263;-75
2023/05/25 17:45:14;;;;;;;9.27;4.45;;;;;18.90;102104.00;;;;10473630;28;20569;-76
2023/05/25 17:50:15;;;;;;;10.25;3.83;;;;;18.80;102103.00;;;;10490285;27;20211;-76
2023/05/25 17:55:17;;;;;;;7.70;4.18;;;;;18.80;102097.00;;;;10473761;27;20222;-77
2023/05/25 18:00:21;;;;;;;13.95;4.57;;;;;18.70;102101.00;;;;10483002;28;20239;-78
2023/05/25 18:05:22;;;;;;;10.93;4.93;;;;;18.60;102105.00;;;;10480699;27;20200;-76
2023/05/25 18:10:24;;;;;;;13.38;5.85;;;;;18.40;102107.00;;;;10474864;28;20200;-75
2023/05/25 18:15:25;;;;;;;8.20;4.43;;;;;18.30;102099.00;;;;10487083;27;20218;-76
2023/05/25 18:20:27;;;;;;;13.93;4.25;;;;;18.20;102099.00;;;;10474052;27;20250;-75
2023/05/25 18:25:29;;;;;;;8.75;4.68;;;;;18.00;102112.00;;;;10463677;27;21376;-76
2023/05/25 18:30:31;;;;;;;9.43;3.85;;;;;17.90;102107.00;;;;10467157;28;20517;-75
2023/05/25 18:35:33;;;;;;;10.70;4.38;;;;;17.70;102113.00;;;;10479439;28;20304;-75
2023/05/25 18:40:34;;;;;;;9.88;4.85;;;;;17.60;102104.00;;;;10470613;27;20198;-76
2023/05/25 18:45:36;;;;;;;9.57;4.78;;;;;17.40;102107.00;;;;10503740;27;21085;-75
2023/05/25 18:50:38;;;;;;;10.43;4.68;;;;;17.30;102110.00;;;;10507772;27;20241;-77
2023/05/25 18:55:39;;;;;;;7.85;3.92;;;;;17.20;102119.00;;;;10475900;28;20227;-75
2023/05/25 19:00:41;;;;;;;9.52;4.18;;;;;17.20;102122.00;;;;10510495;27;20214;-76
2023/05/25 19:05:42;;;;;;;10.38;4.35;;;;;17.00;102121.00;;;;10505630;27;20216;-76
2023/05/25 19:10:44;;;;;;;9.27;4.43;;;;;16.90;102129.00;;;;10502806;27;20221;-75
2023/05/25 19:15:45;;;;;;;11.43;4.38;;;;;16.70;102131.00;;;;10485404;28;20228;-76
2023/05/25 19:20:47;;;;;;;9.48;4.78;;;;;16.60;102126.00;;;;10483541;27;20214;-76
2023/05/25 19:25:48;;;;;;;14.10;4.47;;;;;16.40;102125.00;;;;10466246;27;20290;-74
2023/05/25 19:30:49;;;;;;;10.45;4.07;;;;;16.20;102117.00;;;;10481013;28;20211;-76
2023/05/25 19:35:51;;;;;;;8.07;4.32;;;;;16.00;102134.00;;;;10475864;28;20238;-76
2023/05/25 19:40:52;;;;;;;13.73;4.45;;;;;15.80;102129.00;;;;10495212;28;20877;-76
2023/05/25 19:45:54;;;;;;;10.93;5.05;;;;;15.60;102140.00;;;;10466081;28;20314;-76
2023/05/25 19:50:56;;;;;;;13.32;4.35;;;;;15.50;102141.00;;;;10474615;27;20207;-76
2023/05/25 19:55:57;;;;;;;12.52;4.75;;;;;15.40;102145.00;;;;10474762;27;20729;-76
2023/05/25 20:00:58;;;;;;;8.93;4.38;;;;;15.20;102154.00;;;;10475178;27;20204;-76
2023/05/25 20:06:00;;;;;;;12.00;4.50;;;;;15.00;102163.00;;;;10473283;27;20973;-76
2023/05/25 20:11:02;;;;;;;15.48;4.97;;;;;14.90;102167.00;;;;10466932;28;20260;-75
2023/05/25 20:16:04;;;;;;;17.50;5.65;;;;;14.80;102177.00;;;;10488236;27;20220;-77
2023/05/25 20:21:05;;;;;;;17.27;4.57;;;;;14.70;102187.00;;;;10481659;28;20303;-77
2023/05/25 20:26:06;;;;;;;16.23;5.03;;;;;14.60;102188.00;;;;10480586;27;20240;-76
2023/05/25 20:31:08;;;;;;;18.13;5.13;;;;;14.50;102182.00;;;;10506355;27;21904;-75
2023/05/25 20:36:09;;;;;;;19.93;5.50;;;;;14.40;102191.00;;;;10492905;27;20234;-76
2023/05/25 20:41:10;;;;;;;22.50;5.43;;;;;14.30;102191.00;;;;10519017;27;20222;-74
2023/05/25 20:46:12;;;;;;;20.83;5.73;;;;;14.10;102191.00;;;;10497408;27;20195;-76
2023/05/25 20:51:14;;;;;;;21.27;5.73;;;;;14.00;102191.00;;;;10478527;28;20232;-76
2023/05/25 20:56:15;;;;;;;20.13;6.27;;;;;13.90;102205.00;;;;10494862;28;20211;-75
2023/05/25 21:01:17;;;;;;;26.80;5.50;;;;;13.80;102208.00;;;;10472505;28;20208;-75
2023/05/25 21:06:18;;;;;;;18.67;5.00;;;;;13.60;102216.00;;;;10505199;27;21796;-76
2023/05/25 21:11:20;;;;;;;29.90;6.13;;;;;13.60;102216.00;;;;10480030;27;20256;-74
2023/05/25 21:16:22;;;;;;;21.60;5.83;;;;;13.40;102213.00;;;;10514658;27;21978;-74
2023/05/25 21:21:23;;;;;;;21.90;6.70;;;;;13.40;102213.00;;;;10514542;27;20216;-76
2023/05/25 21:26:24;;;;;;;22.10;5.83;;;;;13.30;102218.00;;;;10480520;27;20207;-74
2023/05/25 21:31:26;;;;;;;24.87;6.10;;;;;13.20;102223.00;;;;10514085;28;20289;-75
2023/05/25 21:36:27;;;;;;;18.17;5.20;;;;;13.10;102222.00;;;;10514165;27;20227;-75
2023/05/25 21:41:29;;;;;;;21.20;5.97;;;;;13.00;102226.00;;;;10480486;28;20223;-76
2023/05/25 21:46:30;;;;;;;20.27;6.10;;;;;12.90;102228.00;;;;10494808;27;20239;-74
2023/05/25 21:51:32;;;;;;;23.77;5.63;;;;;12.80;102231.00;;;;10496577;27;20211;-75
2023/05/25 21:56:33;;;;;;;21.37;5.97;;;;;12.70;102227.00;;;;10494912;27;21953;-76
2023/05/25 22:01:34;;;;;;;25.60;6.90;;;;;12.60;102232.00;;;;10497008;28;20211;-76
2023/05/25 22:06:36;;;;;;;24.63;5.97;;;;;12.50;102235.00;;;;10479830;28;21908;-75
2023/05/25 22:11:38;;;;;;;20.70;6.00;;;;;12.40;102238.00;;;;10493059;27;20216;-74
2023/05/25 22:16:40;;;;;;;39.13;6.70;;;;;12.40;102236.00;;;;10491241;27;20933;-75
2023/05/25 22:21:41;;;;;;;34.23;6.93;;;;;12.30;102240.00;;;;10497282;27;21552;-77
2023/05/25 22:26:42;;;;;;;28.23;6.93;;;;;12.20;102248.00;;;;10482362;28;20200;-76
2023/05/25 22:31:44;;;;;;;23.80;5.90;;;;;12.10;102241.00;;;;10451525;27;20511;-76
2023/05/25 22:36:45;;;;;;;26.03;6.20;;;;;12.10;102249.00;;;;10503106;27;20219;-74
2023/05/25 22:41:47;;;;;;;25.73;7.13;;;;;12.00;102250.00;;;;10485852;27;20244;-76
2023/05/25 22:46:48;;;;;;;21.00;6.97;;;;;11.90;102259.00;;;;10505203;27;20207;-76
2023/05/25 22:51:50;;;;;;;27.70;6.33;;;;;11.80;102262.00;;;;10474262;27;21203;-75
2023/05/25 22:56:51;;;;;;;27.23;6.33;;;;;11.80;102252.00;;;;10477249;27;20230;-75
2023/05/25 23:01:52;;;;;;;23.73;6.90;;;;;11.70;102252.00;;;;10487082;27;20211;-75
2023/05/25 23:06:53;;;;;;;24.30;6.80;;;;;11.70;102257.00;;;;10494544;27;20211;-75
2023/05/25 23:11:55;;;;;;;30.23;6.47;;;;;11.60;102254.00;;;;10511945;28;21899;-75
2023/05/25 23:16:56;;;;;;;26.97;7.13;;;;;11.60;102250.00;;;;10476905;28;21166;-76
2023/05/25 23:21:57;;;;;;;23.87;7.40;;;;;11.50;102250.00;;;;10489846;28;20221;-75
2023/05/25 23:26:58;;;;;;;26.57;6.93;;;;;11.40;102253.00;;;;10473792;27;20355;-74
2023/05/25 23:32:00;;;;;;;25.90;6.73;;;;;11.40;102253.00;;;;10510967;27;20215;-75
2023/05/25 23:37:02;;;;;;;24.33;6.83;;;;;11.30;102247.00;;;;10497505;27;20231;-75
2023/05/25 23:42:07;;;;;;;21.90;6.20;;;;;11.20;102249.00;;;;10503661;27;20231;-76
2023/05/25 23:47:08;;;;;;;28.67;8.23;;;;;11.10;102255.00;;;;10471147;27;20250;-76
2023/05/25 23:52:09;;;;;;;26.20;6.33;;;;;11.00;102250.00;;;;10488037;28;21503;-76
2023/05/25 23:57:11;;;;;;;21.23;6.97;;;;;11.00;102246.00;;;;10511294;27;20219;-75
